Monday, May 30, 2016
22:15 UTC
  |  Log In   |  Register Free
Airport Search:

Page Field Airport
(KFMY)

FAA data valid effective Mar 31 2016 - May 26 2016 (unless otherwise noted).

 
 
 
 
 
 
 
 
 
 
 
 
 
 
Current Aviation Weather for KFMY

Weather Summary


The most recent METAR observation for FMY was updated at: 12:53 UTC
METAR for KFMY is not available. Closest METAR is for KRSW
KFMY  (most recent observation was updatred at 30:21 UTC)
302153Z 14005KT 10SM TS FEW019 BKN060 OVC110 23/21 A2997 RMK AO2 LTG DSNT ALQDS RAE41 SLP151 P0003 T02330211

KRSW  (6.5 nm NW)   (most recent observation was updated at 30:21 UTC)
302153Z 15014KT 9SM VCTS -RA FEW055 BKN120 23/21 A2997 RMK AO2 LTG DSNT ALQDS TSE53 SLP146 P0009 T02330206

KPGD  (21.1 nm SE)   (most recent observation was updated at 30:21 UTC)
302153Z AUTO 15015G18KT 10SM TS BKN035 BKN050 28/20 A2997 RMK AO2 LTG DSNT NE-S TSB2056E31B42 SLP147 T02830200

TAF for KFMY is not available.
KFMY
301738Z 3018/3118 27007KT P6SM VCTS SCT050CB BKN080 TEMPO 3019/3022 3SM TSRA BKN025CB FM310100 VRB03KT P6SM FEW050 FM311500 27005KT P6SM FEW040 SCT250

KRSW  (6.5 nm NW)   (most recent observation was updatred at 30:17 UTC)
301738Z 3018/3118 26007KT P6SM VCTS SCT050CB BKN080 TEMPO 3019/3022 3SM TSRA BKN025CB FM310100 VRB03KT P6SM FEW050 FM311500 22005KT P6SM FEW040 SCT250


KPGD  (21.1 nm SE)   (most recent observation was updatred at 30:21 UTC)
AMD 302108Z 3021/3118 27008KT P6SM VCTS SCT040CB BKN080 TEMPO 3021/3022 3SM TSRA BKN025CB FM310100 VRB03KT P6SM FEW050 FM311500 26005KT P6SM FEW040 SCT250
GlobalAir.com is loading additional information.
 Current Weather at FMY
76.0 F° (24.4 C°)

South winds at 10.4 mph
Pressure:
29.94 in
Humidity:
67%
Wind:
South at 10.4 mph
Dew Point:
64.0 F° (17.8 C°)
Visibility:
8.00 mi
FMY NOAA Radar




Find All Airport Services Find A Hotel Find A Rental Car Find A Golf Course Find A Restaurant $100 Hamburger



Airport Weather Forecast for KFMY

Translated METAR for KFMY (2153 UTC)
METAR:
KFMY 302153Z 14005KT 10SM TS FEW019 BKN060 OVC110 23/21 A2997 RMK AO2 LTG DSNT ALQDS RAE41 SLP151 P0003 T02330211
Conditions at:
KFMY (Page Field, FL) observed 2153 UTC 30 May 2016
Temperature:
23°C (73.4°F)
Dewpoint:
21°C (69.8°F) [RH = 88.5]
Pressure:
29.97 inches Hg (1014.9 mb)
pressure at sea level is 151 in Hg
Winds:
from the SE (140 degrees) at 5.8 mph (5 knots: 2.6 m/s)
Visibility:
10 mile(s)
Ceiling:
6,000 feet AGL
Clouds:
Few Clouds at 1,900 feet AGL
Broken Cloud Cover at 6,000 feet AGL
Overcast Skies at 11,000 feet AGL
Remarks:
site is automated and HAS a precipitation sensor

FBO's on the Field
FBO Company Facility Photos Services Transportation Aviation Fuel Prices: Prices include tax
Catering Weather Repair Courtesy Rental Type 100LL JetA JetA+ MOGAS 8087
 
Base Operations at Page Field

Currently rated 5 by 2 people
FS:Avfuel
Last Updated: May-27
Login to update fuel prices
SS:
Contact Base Operations at Page FieldMore FBO Information
 
Add another FBO Facility Photos Catering Weather Repair Courtesy Rental Type 100LL JetA JetA+ MOGAS 8087
Services Transportation Aviation Fuel Prices: Prices include tax


model-print
model-print
model-print
model-print